createdAt,value
2023-01-28T00:02:07.090Z,13.73
2023-01-28T00:04:35.538Z,14.23
2023-01-28T00:07:03.705Z,13.67
2023-01-28T00:09:31.881Z,14.60
2023-01-28T00:12:00.131Z,13.57
2023-01-28T00:14:29.743Z,13.40
2023-01-28T00:16:57.881Z,13.47
2023-01-28T00:19:26.266Z,15.13
2023-01-28T00:21:54.398Z,14.70
2023-01-28T00:24:22.720Z,14.03
2023-01-28T00:26:51.481Z,11.87
2023-01-28T00:29:19.620Z,13.17
2023-01-28T00:31:49.204Z,13.63
2023-01-28T00:34:17.566Z,13.43
2023-01-28T00:36:45.696Z,13.57
2023-01-28T00:39:15.901Z,11.70
2023-01-28T00:41:44.051Z,11.67
2023-01-28T00:44:12.453Z,11.77
2023-01-28T00:46:41.983Z,10.63
2023-01-28T00:49:11.562Z,11.07
2023-01-28T00:51:39.775Z,11.40
2023-01-28T00:54:07.953Z,11.07
2023-01-28T00:56:36.965Z,11.43
2023-01-28T00:59:05.289Z,10.40
2023-01-28T01:01:33.713Z,11.00
2023-01-28T01:04:03.623Z,11.57
2023-01-28T01:06:35.524Z,12.00
2023-01-28T01:09:06.750Z,11.77
2023-01-28T01:11:36.445Z,11.40
2023-01-28T01:14:05.278Z,12.50
2023-01-28T01:16:36.159Z,11.80
2023-01-28T01:19:04.856Z,13.00
2023-01-28T01:21:34.393Z,12.60
2023-01-28T01:24:02.559Z,13.87
2023-01-28T01:26:30.832Z,13.10
2023-01-28T01:28:59.003Z,13.70
2023-01-28T01:31:28.474Z,12.27
2023-01-28T01:33:56.671Z,13.00
2023-01-28T01:36:24.819Z,13.67
2023-01-28T01:38:56.653Z,13.93
2023-01-28T01:41:28.512Z,13.53
2023-01-28T01:43:58.627Z,14.07
2023-01-28T01:46:33.859Z,12.80
2023-01-28T01:49:09.056Z,14.17
2023-01-28T01:51:38.377Z,14.33
2023-01-28T01:54:08.893Z,13.07
2023-01-28T01:56:42.840Z,13.50
2023-01-28T01:59:15.976Z,13.60
2023-01-28T02:01:45.733Z,13.27
2023-01-28T02:04:21.287Z,13.10
2023-01-28T02:06:50.034Z,11.77
2023-01-28T02:09:30.439Z,11.73
2023-01-28T02:12:02.419Z,11.70
2023-01-28T02:14:36.311Z,12.03
2023-01-28T02:17:05.308Z,11.50
2023-01-28T02:19:39.130Z,12.33
2023-01-28T02:22:23.164Z,11.33
2023-01-28T02:25:24.812Z,10.57
2023-01-28T02:28:10.091Z,12.37
2023-01-28T02:30:43.120Z,10.87
2023-01-28T02:33:16.244Z,11.00
2023-01-28T02:35:49.403Z,12.00
2023-01-28T02:38:22.614Z,11.90
2023-01-28T02:41:06.966Z,11.23
2023-01-28T02:43:39.646Z,11.60
2023-01-28T02:46:36.221Z,11.67
2023-01-28T02:49:06.276Z,11.73
2023-01-28T02:51:47.016Z,11.43
2023-01-28T02:54:20.682Z,11.47
2023-01-28T02:57:01.991Z,11.03
2023-01-28T02:59:37.302Z,11.17
2023-01-28T03:02:14.404Z,11.10
2023-01-28T03:04:49.382Z,10.90
2023-01-28T03:07:19.893Z,11.90
2023-01-28T03:09:51.278Z,11.00
2023-01-28T03:12:40.396Z,11.03
2023-01-28T03:15:32.668Z,10.37
2023-01-28T03:18:21.924Z,11.33
2023-01-28T03:21:13.054Z,10.23
2023-01-28T03:24:06.546Z,10.13
2023-01-28T03:26:57.107Z,11.23
2023-01-28T03:29:43.836Z,10.53
2023-01-28T03:32:31.859Z,11.47
2023-01-28T03:35:17.765Z,11.10
2023-01-28T03:37:46.103Z,10.83
2023-01-28T03:40:14.995Z,11.77
2023-01-28T03:42:43.144Z,10.60
2023-01-28T03:45:12.486Z,10.37
2023-01-28T03:47:43.316Z,11.37
2023-01-28T03:50:12.437Z,11.50
2023-01-28T03:52:40.771Z,11.30
2023-01-28T03:55:14.089Z,10.97
2023-01-28T03:57:44.819Z,10.97
2023-01-28T04:00:14.344Z,10.80
2023-01-28T04:02:43.936Z,12.70
2023-01-28T04:05:15.994Z,12.37
2023-01-28T04:07:44.395Z,12.00
2023-01-28T04:10:13.401Z,12.20
2023-01-28T04:12:41.544Z,11.30
2023-01-28T04:15:16.835Z,11.63
2023-01-28T04:17:50.384Z,11.57
2023-01-28T04:20:19.416Z,13.13
2023-01-28T04:22:47.570Z,13.00
2023-01-28T04:25:16.227Z,12.37
2023-01-28T04:27:44.625Z,12.13
2023-01-28T04:30:13.414Z,12.27
2023-01-28T04:32:41.583Z,11.73
2023-01-28T04:35:11.574Z,11.30
2023-01-28T04:37:41.828Z,13.20
2023-01-28T04:40:11.352Z,12.63
2023-01-28T04:42:39.507Z,12.23
2023-01-28T04:45:09.054Z,12.20
2023-01-28T04:47:37.187Z,11.73
2023-01-28T04:50:06.009Z,12.70
2023-01-28T04:52:35.553Z,13.20
2023-01-28T04:55:04.072Z,12.67
2023-01-28T04:57:32.276Z,12.30
2023-01-28T05:00:00.450Z,12.77
2023-01-28T05:02:28.793Z,14.03
2023-01-28T05:04:56.932Z,13.97
2023-01-28T05:07:25.132Z,12.93
2023-01-28T05:09:54.653Z,12.40
2023-01-28T05:12:22.788Z,13.60
2023-01-28T05:14:50.944Z,13.27
2023-01-28T05:17:19.150Z,13.67
2023-01-28T05:19:47.405Z,12.80
2023-01-28T05:22:15.523Z,17.10
2023-01-28T05:24:43.677Z,13.60
2023-01-28T05:27:13.519Z,13.87
2023-01-28T05:29:41.685Z,13.33
2023-01-28T05:32:09.864Z,13.37
2023-01-28T05:34:38.053Z,13.50
2023-01-28T05:37:06.205Z,14.20
2023-01-28T05:39:34.378Z,12.67
2023-01-28T05:42:02.576Z,14.30
2023-01-28T05:44:36.361Z,14.10
2023-01-28T05:47:04.658Z,14.70
2023-01-28T05:49:32.815Z,13.03
2023-01-28T05:52:01.545Z,13.17
2023-01-28T05:54:29.887Z,13.57
2023-01-28T05:56:58.066Z,13.23
2023-01-28T05:59:26.233Z,13.63
2023-01-28T06:01:55.727Z,13.27
2023-01-28T06:04:23.880Z,13.10
2023-01-28T06:06:52.050Z,13.47
2023-01-28T06:09:20.239Z,14.10
2023-01-28T06:11:50.284Z,14.30
2023-01-28T06:14:18.583Z,13.27
2023-01-28T06:16:46.733Z,13.07
2023-01-28T06:19:16.247Z,13.27
2023-01-28T06:21:44.400Z,11.90
2023-01-28T06:24:13.675Z,12.87
2023-01-28T06:26:41.875Z,12.87
2023-01-28T06:29:10.152Z,12.67
2023-01-28T06:31:38.414Z,13.60
2023-01-28T06:34:06.591Z,13.03
2023-01-28T06:36:38.008Z,12.27
2023-01-28T06:39:06.597Z,12.33
2023-01-28T06:41:34.806Z,13.37
2023-01-28T06:44:03.373Z,12.70
2023-01-28T06:46:31.583Z,12.47
2023-01-28T06:48:59.752Z,11.40
2023-01-28T06:51:27.912Z,12.07
2023-01-28T06:53:57.427Z,12.57
2023-01-28T06:56:25.704Z,11.90
2023-01-28T06:58:53.907Z,13.63
2023-01-28T07:01:22.146Z,12.37
2023-01-28T07:03:50.341Z,13.17
2023-01-28T07:06:18.494Z,12.77
2023-01-28T07:08:46.814Z,12.17
2023-01-28T07:11:16.452Z,13.27
2023-01-28T07:13:45.003Z,13.53
2023-01-28T07:16:13.123Z,12.83
2023-01-28T07:18:41.259Z,12.93
2023-01-28T07:21:09.642Z,11.70
2023-01-28T07:23:39.766Z,13.37
2023-01-28T07:26:08.029Z,13.63
2023-01-28T07:28:37.597Z,12.43
2023-01-28T07:31:06.184Z,12.40
2023-01-28T07:33:34.363Z,12.87
2023-01-28T07:36:02.501Z,12.43
2023-01-28T07:38:30.832Z,13.07
2023-01-28T07:40:59.016Z,12.53
2023-01-28T07:43:27.161Z,12.53
2023-01-28T07:45:56.693Z,12.67
2023-01-28T07:48:24.820Z,13.47
2023-01-28T07:50:53.027Z,14.03
2023-01-28T07:53:21.217Z,12.67
2023-01-28T07:55:49.355Z,12.27
2023-01-28T07:58:17.551Z,12.43
2023-01-28T08:00:45.706Z,13.17
2023-01-28T08:03:16.460Z,13.27
2023-01-28T08:05:47.326Z,12.23
2023-01-28T08:08:16.208Z,13.17
2023-01-28T08:10:45.086Z,13.87
2023-01-28T08:13:14.410Z,12.53
2023-01-28T08:15:42.720Z,12.73
2023-01-28T08:18:13.684Z,13.07
2023-01-28T08:20:45.280Z,13.73
2023-01-28T08:23:15.952Z,12.90
2023-01-28T08:25:44.662Z,13.57
2023-01-28T08:28:13.887Z,12.43
2023-01-28T08:30:42.268Z,12.80
2023-01-28T08:33:12.484Z,12.33
2023-01-28T08:35:41.992Z,12.77
2023-01-28T08:38:11.576Z,13.30
2023-01-28T08:40:39.808Z,12.40
2023-01-28T08:43:07.984Z,13.10
2023-01-28T08:45:36.161Z,12.33
2023-01-28T08:48:06.329Z,12.60
2023-01-28T08:50:36.895Z,13.23
2023-01-28T08:53:08.285Z,14.23
2023-01-28T08:55:36.693Z,12.43
2023-01-28T08:58:06.136Z,12.67
2023-01-28T09:00:35.412Z,13.67
2023-01-28T09:03:06.289Z,13.70
2023-01-28T09:05:35.748Z,13.37
2023-01-28T09:08:04.432Z,13.87
2023-01-28T09:10:35.286Z,12.47
2023-01-28T09:13:06.627Z,13.00
2023-01-28T09:15:35.131Z,13.33
2023-01-28T09:18:03.443Z,12.40
2023-01-28T09:20:32.307Z,12.80
2023-01-28T09:23:00.953Z,12.00
2023-01-28T09:25:29.071Z,14.13
2023-01-28T09:27:59.199Z,12.80
2023-01-28T09:30:27.560Z,14.13
2023-01-28T09:32:58.156Z,14.47
2023-01-28T09:35:26.635Z,14.70
2023-01-28T09:37:58.512Z,13.80
2023-01-28T09:40:34.039Z,15.03
2023-01-28T09:43:18.131Z,14.83
2023-01-28T09:45:48.781Z,15.27
2023-01-28T09:48:21.652Z,15.33
2023-01-28T09:50:54.016Z,15.43
2023-01-28T09:53:24.873Z,15.57
2023-01-28T09:55:57.724Z,14.93
2023-01-28T09:58:27.399Z,13.93
2023-01-28T10:01:01.156Z,14.00
2023-01-28T10:03:39.205Z,13.40
2023-01-28T10:06:19.612Z,14.03
2023-01-28T10:09:20.537Z,13.57
2023-01-28T10:12:14.993Z,13.43
2023-01-28T10:15:11.721Z,13.93
2023-01-28T10:17:44.994Z,13.60
2023-01-28T10:20:21.790Z,13.27
2023-01-28T10:22:55.319Z,14.00
2023-01-28T10:25:25.501Z,13.23
2023-01-28T10:27:53.802Z,13.83
2023-01-28T10:30:25.594Z,13.43
2023-01-28T10:32:57.851Z,14.57
2023-01-28T10:35:26.606Z,13.87
2023-01-28T10:38:01.365Z,14.23
2023-01-28T10:40:30.038Z,14.23
2023-01-28T10:42:58.165Z,13.83
2023-01-28T10:45:31.567Z,14.40
2023-01-28T10:48:04.625Z,14.80
2023-01-28T10:50:34.936Z,13.70
2023-01-28T10:53:05.582Z,14.30
2023-01-28T10:55:39.857Z,14.93
2023-01-28T10:58:19.335Z,15.17
2023-01-28T11:00:54.703Z,15.37
2023-01-28T11:03:24.287Z,15.77
2023-01-28T11:05:53.608Z,14.60
2023-01-28T11:08:24.485Z,14.90
2023-01-28T11:10:53.974Z,15.20
2023-01-28T11:13:23.938Z,15.17
2023-01-28T11:15:55.217Z,14.60
2023-01-28T11:18:26.244Z,14.70
2023-01-28T11:20:57.831Z,15.33
2023-01-28T11:23:28.305Z,15.30
2023-01-28T11:26:06.222Z,14.47
2023-01-28T11:28:34.885Z,16.20
2023-01-28T11:31:05.704Z,13.40
2023-01-28T11:33:37.813Z,14.30
2023-01-28T11:36:09.648Z,14.07
2023-01-28T11:38:37.796Z,14.83
2023-01-28T11:41:06.447Z,15.47
2023-01-28T11:43:34.580Z,14.30
2023-01-28T11:46:18.976Z,13.73
2023-01-28T11:49:01.439Z,13.53
2023-01-28T11:51:37.995Z,14.40
2023-01-28T11:54:24.581Z,14.40
2023-01-28T11:57:05.625Z,14.83
2023-01-28T11:59:47.099Z,16.20
2023-01-28T12:02:30.756Z,14.97
2023-01-28T12:05:13.182Z,14.97
2023-01-28T12:07:51.325Z,15.07
2023-01-28T12:10:29.952Z,15.10
2023-01-28T12:13:10.166Z,14.80
2023-01-28T12:16:13.671Z,13.97
2023-01-28T12:19:10.275Z,15.03
2023-01-28T12:21:52.090Z,15.80
2023-01-28T12:24:36.592Z,15.23
2023-01-28T12:27:12.648Z,15.63
2023-01-28T12:29:49.911Z,14.63
2023-01-28T12:32:39.406Z,16.30
2023-01-28T12:35:32.563Z,16.00
2023-01-28T12:38:08.936Z,14.73
2023-01-28T12:40:56.830Z,15.33
2023-01-28T12:43:39.372Z,15.27
2023-01-28T12:46:14.158Z,14.67
2023-01-28T12:48:48.072Z,14.13
2023-01-28T12:51:22.385Z,14.40
2023-01-28T12:53:56.224Z,14.07
2023-01-28T12:56:29.057Z,13.60
2023-01-28T12:59:01.968Z,14.40
2023-01-28T13:01:36.172Z,13.77
2023-01-28T13:04:10.181Z,14.67
2023-01-28T13:06:45.521Z,14.90
2023-01-28T13:09:18.708Z,12.10
2023-01-28T13:11:49.433Z,14.07
2023-01-28T13:14:18.223Z,14.13
2023-01-28T13:16:46.396Z,12.77
2023-01-28T13:19:26.103Z,13.43
2023-01-28T13:21:55.635Z,12.73
2023-01-28T13:24:33.022Z,13.27
2023-01-28T13:27:22.543Z,13.50
2023-01-28T13:30:01.361Z,14.27
2023-01-28T13:32:33.004Z,15.20
2023-01-28T13:35:06.004Z,14.90
2023-01-28T13:37:38.921Z,15.43
2023-01-28T13:40:25.224Z,13.80
2023-01-28T13:43:02.281Z,13.90
2023-01-28T13:45:31.240Z,15.93
2023-01-28T13:48:07.303Z,15.30
2023-01-28T13:50:41.056Z,16.00
2023-01-28T13:53:23.205Z,15.17
2023-01-28T13:55:56.515Z,16.27
2023-01-28T13:58:58.245Z,16.40
2023-01-28T14:02:02.997Z,16.13
2023-01-28T14:04:56.266Z,16.60
2023-01-28T14:07:42.033Z,16.23
2023-01-28T14:10:34.972Z,16.00
2023-01-28T14:13:32.810Z,16.40
2023-01-28T14:16:17.428Z,15.10
2023-01-28T14:18:47.079Z,15.77
2023-01-28T14:21:18.147Z,16.33
2023-01-28T14:23:49.362Z,16.90
2023-01-28T14:26:33.072Z,16.47
2023-01-28T14:29:14.201Z,16.40
2023-01-28T14:31:42.593Z,18.70
2023-01-28T14:34:17.874Z,18.47
2023-01-28T14:36:47.540Z,21.93
2023-01-28T14:39:20.485Z,21.33
2023-01-28T14:41:52.166Z,21.87
2023-01-28T14:44:30.565Z,6.43
2023-01-28T14:47:25.717Z,15.93
2023-01-28T14:50:12.957Z,20.10
2023-01-28T14:52:58.630Z,18.13
2023-01-28T14:55:37.773Z,21.80
2023-01-28T14:58:15.349Z,22.43
2023-01-28T15:00:55.684Z,23.10
2023-01-28T15:03:25.202Z,24.17
2023-01-28T15:06:04.454Z,24.60
2023-01-28T15:08:33.315Z,23.60
2023-01-28T15:11:02.978Z,24.20
2023-01-28T15:13:38.773Z,25.07
2023-01-28T15:16:08.403Z,24.13
2023-01-28T15:18:39.105Z,22.93
2023-01-28T15:21:07.516Z,17.70
2023-01-28T15:23:37.357Z,12.43
2023-01-28T15:26:11.552Z,13.73
2023-01-28T15:28:41.795Z,13.73
2023-01-28T15:31:21.925Z,14.90
2023-01-28T15:33:58.580Z,15.30
2023-01-28T15:36:27.125Z,17.73
2023-01-28T15:38:55.684Z,18.17
2023-01-28T15:41:28.509Z,19.27
2023-01-28T15:43:58.139Z,19.33
2023-01-28T15:46:26.329Z,19.43
2023-01-28T15:48:59.693Z,18.17
2023-01-28T15:51:30.966Z,20.47
2023-01-28T15:54:01.843Z,18.67
2023-01-28T15:56:31.475Z,24.13
2023-01-28T15:59:18.245Z,20.83
2023-01-28T16:01:46.445Z,16.87
2023-01-28T16:04:25.141Z,17.27
2023-01-28T16:06:54.902Z,16.63
2023-01-28T16:09:27.839Z,15.07
2023-01-28T16:12:03.684Z,14.93
2023-01-28T16:14:44.245Z,14.67
2023-01-28T16:17:17.087Z,16.80
2023-01-28T16:19:48.160Z,18.43
2023-01-28T16:22:22.360Z,15.90
2023-01-28T16:24:52.998Z,16.23
2023-01-28T16:27:23.519Z,15.67
2023-01-28T16:29:53.245Z,16.60
2023-01-28T16:32:35.300Z,15.87
2023-01-28T16:35:04.645Z,16.30
2023-01-28T16:37:32.881Z,14.40
2023-01-28T16:40:02.335Z,14.50
2023-01-28T16:42:32.271Z,13.67
2023-01-28T16:45:01.863Z,14.37
2023-01-28T16:47:30.323Z,13.90
2023-01-28T16:49:58.504Z,15.47
2023-01-28T16:52:26.784Z,14.93
2023-01-28T16:54:55.005Z,13.17
2023-01-28T16:57:24.029Z,13.33
2023-01-28T16:59:52.163Z,15.43
2023-01-28T17:02:21.734Z,9.57
2023-01-28T17:04:50.685Z,5.53
2023-01-28T17:07:18.857Z,7.23
2023-01-28T17:09:47.005Z,6.50
2023-01-28T17:12:15.173Z,8.80
2023-01-28T17:14:43.318Z,10.73
2023-01-28T17:17:11.703Z,10.70
2023-01-28T17:19:41.255Z,10.27
2023-01-28T17:22:09.480Z,11.50
2023-01-28T17:24:37.699Z,13.17
2023-01-28T17:27:06.088Z,14.10
2023-01-28T17:29:34.427Z,15.97
2023-01-28T17:32:02.735Z,14.70
2023-01-28T17:34:31.421Z,11.83
2023-01-28T17:37:01.036Z,9.23
2023-01-28T17:39:29.196Z,11.87
2023-01-28T17:41:57.413Z,13.50
2023-01-28T17:44:25.592Z,15.47
2023-01-28T17:46:53.735Z,11.17
2023-01-28T17:49:21.872Z,7.50
2023-01-28T17:51:50.081Z,5.63
2023-01-28T17:54:19.644Z,27.53
2023-01-28T17:56:47.914Z,28.43
2023-01-28T17:59:17.515Z,13.97
2023-01-28T18:01:47.453Z,16.70
2023-01-28T18:04:15.909Z,13.53
2023-01-28T18:06:44.838Z,16.97
2023-01-28T18:09:13.305Z,16.07
2023-01-28T18:11:43.097Z,10.50
2023-01-28T18:14:11.472Z,8.83
2023-01-28T18:16:39.736Z,7.20
2023-01-28T18:19:09.703Z,5.17
2023-01-28T18:21:52.773Z,4.87
2023-01-28T18:24:22.188Z,5.30
2023-01-28T18:26:52.241Z,6.20
2023-01-28T18:29:24.054Z,7.33
2023-01-28T18:31:54.379Z,10.83
2023-01-28T18:34:23.685Z,7.30
2023-01-28T18:36:52.150Z,9.00
2023-01-28T18:39:21.639Z,7.57
2023-01-28T18:41:53.089Z,8.47
2023-01-28T18:44:21.361Z,7.60
2023-01-28T18:46:49.513Z,9.03
2023-01-28T18:49:17.910Z,6.20
2023-01-28T18:51:46.164Z,6.93
2023-01-28T18:54:15.690Z,5.17
2023-01-28T18:56:44.710Z,6.53
2023-01-28T18:59:15.588Z,5.63
2023-01-28T19:01:44.379Z,6.97
2023-01-28T19:04:12.765Z,7.13
2023-01-28T19:06:41.006Z,5.80
2023-01-28T19:09:11.997Z,5.40
2023-01-28T19:11:41.588Z,8.33
2023-01-28T19:14:10.395Z,6.77
2023-01-28T19:16:40.855Z,5.97
2023-01-28T19:19:09.200Z,7.43
2023-01-28T19:21:38.149Z,6.60
2023-01-28T19:24:09.908Z,6.53
2023-01-28T19:26:39.149Z,6.43
2023-01-28T19:29:08.153Z,7.43
2023-01-28T19:31:36.827Z,6.63
2023-01-28T19:34:08.505Z,6.00
2023-01-28T19:36:37.215Z,7.67
2023-01-28T19:39:07.749Z,6.33
2023-01-28T19:41:37.412Z,5.37
2023-01-28T19:44:06.406Z,6.47
2023-01-28T19:46:36.660Z,6.80
2023-01-28T19:49:07.127Z,6.33
2023-01-28T19:51:35.335Z,6.17
2023-01-28T19:54:03.496Z,6.47
2023-01-28T19:56:36.051Z,6.40
2023-01-28T19:59:04.484Z,6.83
2023-01-28T20:01:32.707Z,7.87
2023-01-28T20:04:01.984Z,8.87
2023-01-28T20:06:33.265Z,7.33
2023-01-28T20:09:03.553Z,6.50
2023-01-28T20:11:31.942Z,7.73
2023-01-28T20:14:00.800Z,6.63
2023-01-28T20:16:30.991Z,8.17
2023-01-28T20:19:01.340Z,7.90
2023-01-28T20:21:31.983Z,7.43
2023-01-28T20:24:02.036Z,5.97
2023-01-28T20:26:32.177Z,7.17
2023-01-28T20:29:02.003Z,7.57
2023-01-28T20:31:30.677Z,8.57
2023-01-28T20:33:59.067Z,9.87
2023-01-28T20:36:27.664Z,8.57
2023-01-28T20:38:57.419Z,8.17
2023-01-28T20:41:27.387Z,8.33
2023-01-28T20:43:56.619Z,7.43
2023-01-28T20:46:27.660Z,7.67
2023-01-28T20:48:57.437Z,6.97
2023-01-28T20:51:27.152Z,8.07
2023-01-28T20:53:57.176Z,8.40
2023-01-28T20:56:26.898Z,8.77
2023-01-28T20:58:57.021Z,8.87
2023-01-28T21:01:27.336Z,6.87
2023-01-28T21:03:56.613Z,6.73
2023-01-28T21:06:25.644Z,6.47
2023-01-28T21:08:54.354Z,7.77
2023-01-28T21:11:25.619Z,6.33
2023-01-28T21:13:54.595Z,5.43
2023-01-28T21:16:23.140Z,6.87
2023-01-28T21:18:51.653Z,7.17
2023-01-28T21:21:21.323Z,7.23
2023-01-28T21:23:49.641Z,7.50
2023-01-28T21:26:18.572Z,7.07
2023-01-28T21:28:48.169Z,5.77
2023-01-28T21:31:18.089Z,5.43
2023-01-28T21:33:50.168Z,6.43
2023-01-28T21:36:18.995Z,6.90
2023-01-28T21:38:52.115Z,7.00
2023-01-28T21:41:20.524Z,6.67
2023-01-28T21:43:53.869Z,6.80
2023-01-28T21:46:22.577Z,6.90
2023-01-28T21:48:54.082Z,9.57
2023-01-28T21:51:39.361Z,6.83
2023-01-28T21:54:11.466Z,7.30
2023-01-28T21:56:39.995Z,7.33
2023-01-28T21:59:29.170Z,5.73
2023-01-28T22:01:58.861Z,6.97
2023-01-28T22:04:28.011Z,6.33
2023-01-28T22:06:56.487Z,7.40
2023-01-28T22:09:25.072Z,8.40
2023-01-28T22:11:53.295Z,5.67
2023-01-28T22:14:23.204Z,5.83
2023-01-28T22:16:51.458Z,6.00
2023-01-28T22:19:19.589Z,6.03
2023-01-28T22:21:47.992Z,6.30
2023-01-28T22:24:18.180Z,6.50
2023-01-28T22:26:48.151Z,6.23
2023-01-28T22:29:18.038Z,6.47
2023-01-28T22:31:48.375Z,6.07
2023-01-28T22:34:17.099Z,6.10
2023-01-28T22:36:45.489Z,6.00
2023-01-28T22:39:15.673Z,6.23
2023-01-28T22:41:44.931Z,5.80
2023-01-28T22:44:13.310Z,6.43
2023-01-28T22:46:41.577Z,7.80
2023-01-28T22:49:11.832Z,7.87
2023-01-28T22:51:40.016Z,7.90
2023-01-28T22:54:09.106Z,9.43
2023-01-28T22:56:37.267Z,7.80
2023-01-28T22:59:05.538Z,8.40
2023-01-28T23:01:35.385Z,9.50
2023-01-28T23:04:03.633Z,9.20
2023-01-28T23:06:34.094Z,9.33
2023-01-28T23:09:02.256Z,8.30
2023-01-28T23:11:30.436Z,7.53
2023-01-28T23:14:17.641Z,8.07
2023-01-28T23:17:03.382Z,7.83
2023-01-28T23:19:49.309Z,8.90
2023-01-28T23:22:44.015Z,7.63
2023-01-28T23:25:12.317Z,6.97
2023-01-28T23:27:40.479Z,8.03
2023-01-28T23:30:11.511Z,6.47
2023-01-28T23:32:41.147Z,6.90
2023-01-28T23:35:10.207Z,6.60
2023-01-28T23:37:40.084Z,7.17
2023-01-28T23:40:09.624Z,7.20
2023-01-28T23:42:37.805Z,6.83
2023-01-28T23:45:07.153Z,7.77
2023-01-28T23:47:35.348Z,6.60
2023-01-28T23:50:03.627Z,6.70
2023-01-28T23:52:31.898Z,7.37
2023-01-28T23:55:01.402Z,6.13
2023-01-28T23:57:29.556Z,6.53
2023-01-28T23:59:57.947Z,6.50
